sensor_id;sensor_type;location;lat;lon;timestamp;temperature;humidity
7016;DHT22;3548;48.402;9.990;2023-02-08T00:01:14;-3.40;99.10
7016;DHT22;3548;48.402;9.990;2023-02-08T00:03:39;-3.40;99.50
7016;DHT22;3548;48.402;9.990;2023-02-08T00:06:06;-3.40;99.70
7016;DHT22;3548;48.402;9.990;2023-02-08T00:08:33;-3.40;99.70
7016;DHT22;3548;48.402;9.990;2023-02-08T00:10:59;-3.40;99.90
7016;DHT22;3548;48.402;9.990;2023-02-08T00:13:24;-3.40;99.90
7016;DHT22;3548;48.402;9.990;2023-02-08T00:15:52;-3.40;99.50
7016;DHT22;3548;48.402;9.990;2023-02-08T00:18:18;-3.40;99.40
7016;DHT22;3548;48.402;9.990;2023-02-08T00:20:44;-3.40;99.50
7016;DHT22;3548;48.402;9.990;2023-02-08T00:23:11;-3.40;99.30
7016;DHT22;3548;48.402;9.990;2023-02-08T00:25:38;-3.50;99.10
7016;DHT22;3548;48.402;9.990;2023-02-08T00:28:04;-3.50;99.20
7016;DHT22;3548;48.402;9.990;2023-02-08T00:30:30;-3.50;99.30
7016;DHT22;3548;48.402;9.990;2023-02-08T00:32:55;-3.60;99.90
7016;DHT22;3548;48.402;9.990;2023-02-08T00:35:21;-3.60;99.50
7016;DHT22;3548;48.402;9.990;2023-02-08T00:37:47;-3.60;99.30
7016;DHT22;3548;48.402;9.990;2023-02-08T00:40:12;-3.60;99.60
7016;DHT22;3548;48.402;9.990;2023-02-08T00:42:38;-3.50;99.80
7016;DHT22;3548;48.402;9.990;2023-02-08T00:45:04;-3.50;99.90
7016;DHT22;3548;48.402;9.990;2023-02-08T00:47:29;-3.50;99.80
7016;DHT22;3548;48.402;9.990;2023-02-08T00:49:55;-3.40;99.40
7016;DHT22;3548;48.402;9.990;2023-02-08T00:52:20;-3.50;99.20
7016;DHT22;3548;48.402;9.990;2023-02-08T00:54:46;-3.50;99.00
7016;DHT22;3548;48.402;9.990;2023-02-08T00:57:12;-3.50;99.60
7016;DHT22;3548;48.402;9.990;2023-02-08T00:59:37;-3.50;99.10
7016;DHT22;3548;48.402;9.990;2023-02-08T01:02:03;-3.50;99.20
7016;DHT22;3548;48.402;9.990;2023-02-08T01:04:29;-3.40;99.20
7016;DHT22;3548;48.402;9.990;2023-02-08T01:06:54;-3.50;99.40
7016;DHT22;3548;48.402;9.990;2023-02-08T01:09:20;-3.50;99.40
7016;DHT22;3548;48.402;9.990;2023-02-08T01:11:46;-3.50;99.30
7016;DHT22;3548;48.402;9.990;2023-02-08T01:14:11;-3.50;99.60
7016;DHT22;3548;48.402;9.990;2023-02-08T01:16:37;-3.50;99.20
7016;DHT22;3548;48.402;9.990;2023-02-08T01:19:04;-3.60;99.40
7016;DHT22;3548;48.402;9.990;2023-02-08T01:21:32;-3.60;99.90
7016;DHT22;3548;48.402;9.990;2023-02-08T01:23:59;-3.60;99.90
7016;DHT22;3548;48.402;9.990;2023-02-08T01:26:25;-3.50;99.90
7016;DHT22;3548;48.402;9.990;2023-02-08T01:28:52;-3.50;99.90
7016;DHT22;3548;48.402;9.990;2023-02-08T01:31:22;-3.60;99.90
7016;DHT22;3548;48.402;9.990;2023-02-08T01:33:48;-3.60;99.90
7016;DHT22;3548;48.402;9.990;2023-02-08T01:36:14;-3.70;99.80
7016;DHT22;3548;48.402;9.990;2023-02-08T01:38:41;-3.70;99.90
7016;DHT22;3548;48.402;9.990;2023-02-08T01:41:08;-3.80;99.90
7016;DHT22;3548;48.402;9.990;2023-02-08T01:44:03;-3.80;99.90
7016;DHT22;3548;48.402;9.990;2023-02-08T01:46:31;-3.80;99.90
7016;DHT22;3548;48.402;9.990;2023-02-08T01:49:07;-3.80;99.90
7016;DHT22;3548;48.402;9.990;2023-02-08T01:51:38;-3.80;99.90
7016;DHT22;3548;48.402;9.990;2023-02-08T01:54:06;-3.90;99.90
7016;DHT22;3548;48.402;9.990;2023-02-08T01:56:36;-3.90;99.90
7016;DHT22;3548;48.402;9.990;2023-02-08T01:59:05;-4.00;99.90
7016;DHT22;3548;48.402;9.990;2023-02-08T02:01:33;-4.00;99.90
7016;DHT22;3548;48.402;9.990;2023-02-08T02:04:01;-4.00;99.90
7016;DHT22;3548;48.402;9.990;2023-02-08T02:06:30;-4.10;99.90
7016;DHT22;3548;48.402;9.990;2023-02-08T02:09:25;-4.20;99.90
7016;DHT22;3548;48.402;9.990;2023-02-08T02:11:52;-4.20;99.90
7016;DHT22;3548;48.402;9.990;2023-02-08T02:14:19;-4.20;99.90
7016;DHT22;3548;48.402;9.990;2023-02-08T02:16:45;-4.20;99.90
7016;DHT22;3548;48.402;9.990;2023-02-08T02:19:48;-4.20;99.90
7016;DHT22;3548;48.402;9.990;2023-02-08T02:38:47;-4.40;99.90
7016;DHT22;3548;48.402;9.990;2023-02-08T02:50:36;-4.40;99.90
7016;DHT22;3548;48.402;9.990;2023-02-08T02:53:30;-4.40;99.90
7016;DHT22;3548;48.402;9.990;2023-02-08T02:56:15;-4.50;99.90
7016;DHT22;3548;48.402;9.990;2023-02-08T02:58:42;-4.50;99.90
7016;DHT22;3548;48.402;9.990;2023-02-08T03:01:08;-4.50;99.90
7016;DHT22;3548;48.402;9.990;2023-02-08T03:03:34;-4.40;99.90
7016;DHT22;3548;48.402;9.990;2023-02-08T03:06:13;-4.50;99.90
7016;DHT22;3548;48.402;9.990;2023-02-08T03:09:04;-4.50;99.90
7016;DHT22;3548;48.402;9.990;2023-02-08T03:11:36;-4.50;99.90
7016;DHT22;3548;48.402;9.990;2023-02-08T03:14:25;-4.50;99.90
7016;DHT22;3548;48.402;9.990;2023-02-08T03:20:07;-4.60;99.90
7016;DHT22;3548;48.402;9.990;2023-02-08T03:23:27;-4.60;99.90
7016;DHT22;3548;48.402;9.990;2023-02-08T03:26:10;-4.60;99.90
7016;DHT22;3548;48.402;9.990;2023-02-08T03:28:57;-4.60;99.90
7016;DHT22;3548;48.402;9.990;2023-02-08T03:31:32;-4.70;99.90
7016;DHT22;3548;48.402;9.990;2023-02-08T03:34:10;-4.70;99.90
7016;DHT22;3548;48.402;9.990;2023-02-08T03:37:15;-4.70;99.90
7016;DHT22;3548;48.402;9.990;2023-02-08T03:39:44;-4.70;99.90
7016;DHT22;3548;48.402;9.990;2023-02-08T03:42:16;-4.70;99.90
7016;DHT22;3548;48.402;9.990;2023-02-08T03:44:59;-4.70;99.90
7016;DHT22;3548;48.402;9.990;2023-02-08T03:47:28;-4.70;99.90
7016;DHT22;3548;48.402;9.990;2023-02-08T03:49:59;-4.80;99.90
7016;DHT22;3548;48.402;9.990;2023-02-08T03:52:27;-4.70;99.90
7016;DHT22;3548;48.402;9.990;2023-02-08T03:54:58;-4.80;99.90
7016;DHT22;3548;48.402;9.990;2023-02-08T03:57:29;-4.80;99.90
7016;DHT22;3548;48.402;9.990;2023-02-08T03:59:59;-4.90;99.90
7016;DHT22;3548;48.402;9.990;2023-02-08T04:02:28;-4.90;99.90
7016;DHT22;3548;48.402;9.990;2023-02-08T04:04:55;-4.90;99.90
7016;DHT22;3548;48.402;9.990;2023-02-08T04:07:21;-4.80;99.90
7016;DHT22;3548;48.402;9.990;2023-02-08T04:09:47;-4.80;99.90
7016;DHT22;3548;48.402;9.990;2023-02-08T04:12:12;-4.80;99.90
7016;DHT22;3548;48.402;9.990;2023-02-08T04:14:38;-4.80;99.90
7016;DHT22;3548;48.402;9.990;2023-02-08T04:17:04;-4.80;99.90
7016;DHT22;3548;48.402;9.990;2023-02-08T04:19:29;-4.90;99.90
7016;DHT22;3548;48.402;9.990;2023-02-08T04:21:55;-4.90;99.90
7016;DHT22;3548;48.402;9.990;2023-02-08T04:24:20;-4.90;99.90
7016;DHT22;3548;48.402;9.990;2023-02-08T04:26:46;-4.90;99.90
7016;DHT22;3548;48.402;9.990;2023-02-08T04:29:12;-5.00;99.90
7016;DHT22;3548;48.402;9.990;2023-02-08T04:31:37;-5.00;99.90
7016;DHT22;3548;48.402;9.990;2023-02-08T04:34:03;-5.10;99.90
7016;DHT22;3548;48.402;9.990;2023-02-08T04:36:28;-5.20;99.90
7016;DHT22;3548;48.402;9.990;2023-02-08T04:38:54;-5.20;99.90
7016;DHT22;3548;48.402;9.990;2023-02-08T04:41:20;-5.30;99.90
7016;DHT22;3548;48.402;9.990;2023-02-08T04:43:45;-5.30;99.90
7016;DHT22;3548;48.402;9.990;2023-02-08T04:46:11;-5.20;99.90
7016;DHT22;3548;48.402;9.990;2023-02-08T04:48:36;-5.20;99.90
7016;DHT22;3548;48.402;9.990;2023-02-08T04:51:02;-5.20;99.90
7016;DHT22;3548;48.402;9.990;2023-02-08T04:53:27;-5.20;99.90
7016;DHT22;3548;48.402;9.990;2023-02-08T04:55:53;-5.10;99.90
7016;DHT22;3548;48.402;9.990;2023-02-08T04:58:19;-5.10;99.90
7016;DHT22;3548;48.402;9.990;2023-02-08T05:00:44;-5.10;99.90
7016;DHT22;3548;48.402;9.990;2023-02-08T05:03:10;-5.10;99.90
7016;DHT22;3548;48.402;9.990;2023-02-08T05:05:36;-5.10;99.90
7016;DHT22;3548;48.402;9.990;2023-02-08T05:08:02;-5.10;99.90
7016;DHT22;3548;48.402;9.990;2023-02-08T05:10:27;-5.10;99.90
7016;DHT22;3548;48.402;9.990;2023-02-08T05:12:53;-5.20;99.90
7016;DHT22;3548;48.402;9.990;2023-02-08T05:15:18;-5.20;99.90
7016;DHT22;3548;48.402;9.990;2023-02-08T05:17:44;-5.20;99.90
7016;DHT22;3548;48.402;9.990;2023-02-08T05:20:10;-5.10;99.90
7016;DHT22;3548;48.402;9.990;2023-02-08T05:22:36;-5.10;99.90
7016;DHT22;3548;48.402;9.990;2023-02-08T05:25:01;-5.20;99.90
7016;DHT22;3548;48.402;9.990;2023-02-08T05:27:27;-5.20;99.90
7016;DHT22;3548;48.402;9.990;2023-02-08T05:29:53;-5.10;99.90
7016;DHT22;3548;48.402;9.990;2023-02-08T05:32:18;-5.10;99.90
7016;DHT22;3548;48.402;9.990;2023-02-08T05:34:44;-5.10;99.90
7016;DHT22;3548;48.402;9.990;2023-02-08T05:37:10;-5.10;99.90
7016;DHT22;3548;48.402;9.990;2023-02-08T05:39:36;-5.20;99.90
7016;DHT22;3548;48.402;9.990;2023-02-08T05:42:02;-5.20;99.90
7016;DHT22;3548;48.402;9.990;2023-02-08T05:44:27;-5.20;99.90
7016;DHT22;3548;48.402;9.990;2023-02-08T05:46:53;-5.20;99.90
7016;DHT22;3548;48.402;9.990;2023-02-08T05:49:18;-5.20;99.90
7016;DHT22;3548;48.402;9.990;2023-02-08T05:51:44;-5.30;99.90
7016;DHT22;3548;48.402;9.990;2023-02-08T05:54:09;-5.20;99.90
7016;DHT22;3548;48.402;9.990;2023-02-08T05:56:35;-5.30;99.90
7016;DHT22;3548;48.402;9.990;2023-02-08T05:59:02;-5.30;99.90
7016;DHT22;3548;48.402;9.990;2023-02-08T06:01:28;-5.30;99.90
7016;DHT22;3548;48.402;9.990;2023-02-08T06:03:53;-5.30;99.90
7016;DHT22;3548;48.402;9.990;2023-02-08T06:06:20;-5.30;99.90
7016;DHT22;3548;48.402;9.990;2023-02-08T06:08:46;-5.30;99.90
7016;DHT22;3548;48.402;9.990;2023-02-08T06:11:12;-5.30;99.90
7016;DHT22;3548;48.402;9.990;2023-02-08T06:13:37;-5.40;99.90
7016;DHT22;3548;48.402;9.990;2023-02-08T06:16:04;-5.30;99.90
7016;DHT22;3548;48.402;9.990;2023-02-08T06:18:30;-5.40;99.90
7016;DHT22;3548;48.402;9.990;2023-02-08T06:20:55;-5.30;99.90
7016;DHT22;3548;48.402;9.990;2023-02-08T06:23:21;-5.30;99.90
7016;DHT22;3548;48.402;9.990;2023-02-08T06:25:47;-5.40;99.90
7016;DHT22;3548;48.402;9.990;2023-02-08T06:28:13;-5.40;99.90
7016;DHT22;3548;48.402;9.990;2023-02-08T06:30:38;-5.40;99.90
7016;DHT22;3548;48.402;9.990;2023-02-08T06:33:04;-5.30;99.90
7016;DHT22;3548;48.402;9.990;2023-02-08T06:35:30;-5.40;99.90
7016;DHT22;3548;48.402;9.990;2023-02-08T06:37:56;-5.40;99.90
7016;DHT22;3548;48.402;9.990;2023-02-08T06:40:23;-5.40;99.90
7016;DHT22;3548;48.402;9.990;2023-02-08T06:42:48;-5.40;99.90
7016;DHT22;3548;48.402;9.990;2023-02-08T06:45:14;-5.40;99.90
7016;DHT22;3548;48.402;9.990;2023-02-08T06:47:40;-5.40;99.90
7016;DHT22;3548;48.402;9.990;2023-02-08T06:50:06;-5.40;99.90
7016;DHT22;3548;48.402;9.990;2023-02-08T06:52:32;-5.40;99.90
7016;DHT22;3548;48.402;9.990;2023-02-08T06:54:57;-5.40;99.90
7016;DHT22;3548;48.402;9.990;2023-02-08T06:57:23;-5.40;99.90
7016;DHT22;3548;48.402;9.990;2023-02-08T06:59:49;-5.40;99.90
7016;DHT22;3548;48.402;9.990;2023-02-08T07:02:17;-5.40;99.90
7016;DHT22;3548;48.402;9.990;2023-02-08T07:04:43;-5.40;99.90
7016;DHT22;3548;48.402;9.990;2023-02-08T07:07:11;-5.40;99.90
7016;DHT22;3548;48.402;9.990;2023-02-08T07:09:37;-5.40;99.90
7016;DHT22;3548;48.402;9.990;2023-02-08T07:12:03;-5.30;99.90
7016;DHT22;3548;48.402;9.990;2023-02-08T07:14:38;-5.20;99.90
7016;DHT22;3548;48.402;9.990;2023-02-08T07:17:04;-5.20;99.90
7016;DHT22;3548;48.402;9.990;2023-02-08T07:19:30;-5.20;99.90
7016;DHT22;3548;48.402;9.990;2023-02-08T07:21:56;-5.10;99.90
7016;DHT22;3548;48.402;9.990;2023-02-08T07:24:23;-5.10;99.90
7016;DHT22;3548;48.402;9.990;2023-02-08T07:26:49;-5.10;99.90
7016;DHT22;3548;48.402;9.990;2023-02-08T07:29:15;-5.10;99.90
7016;DHT22;3548;48.402;9.990;2023-02-08T07:31:40;-5.10;99.90
7016;DHT22;3548;48.402;9.990;2023-02-08T07:34:06;-5.10;99.90
7016;DHT22;3548;48.402;9.990;2023-02-08T07:36:31;-5.10;99.90
7016;DHT22;3548;48.402;9.990;2023-02-08T07:38:57;-5.00;99.90
7016;DHT22;3548;48.402;9.990;2023-02-08T07:41:22;-4.90;99.90
7016;DHT22;3548;48.402;9.990;2023-02-08T07:43:48;-4.90;99.90
7016;DHT22;3548;48.402;9.990;2023-02-08T07:46:16;-4.80;99.90
7016;DHT22;3548;48.402;9.990;2023-02-08T07:48:42;-4.80;99.90
7016;DHT22;3548;48.402;9.990;2023-02-08T07:51:08;-4.80;99.90
7016;DHT22;3548;48.402;9.990;2023-02-08T07:53:34;-4.80;99.90
7016;DHT22;3548;48.402;9.990;2023-02-08T07:56:00;-4.70;99.90
7016;DHT22;3548;48.402;9.990;2023-02-08T07:58:26;-4.60;99.90
7016;DHT22;3548;48.402;9.990;2023-02-08T08:00:51;-4.50;99.90
7016;DHT22;3548;48.402;9.990;2023-02-08T08:03:17;-4.50;99.90
7016;DHT22;3548;48.402;9.990;2023-02-08T08:05:43;-4.50;99.90
7016;DHT22;3548;48.402;9.990;2023-02-08T08:08:09;-4.50;99.90
7016;DHT22;3548;48.402;9.990;2023-02-08T08:10:36;-4.40;99.90
7016;DHT22;3548;48.402;9.990;2023-02-08T08:13:01;-4.40;99.90
7016;DHT22;3548;48.402;9.990;2023-02-08T08:15:27;-4.40;99.90
7016;DHT22;3548;48.402;9.990;2023-02-08T08:17:53;-4.30;99.90
7016;DHT22;3548;48.402;9.990;2023-02-08T08:20:18;-4.30;99.90
7016;DHT22;3548;48.402;9.990;2023-02-08T08:22:44;-4.20;99.90
7016;DHT22;3548;48.402;9.990;2023-02-08T08:25:10;-4.20;99.90
7016;DHT22;3548;48.402;9.990;2023-02-08T08:27:36;-4.20;99.90
7016;DHT22;3548;48.402;9.990;2023-02-08T08:30:04;-4.00;99.90
7016;DHT22;3548;48.402;9.990;2023-02-08T08:32:30;-4.10;99.90
7016;DHT22;3548;48.402;9.990;2023-02-08T08:34:55;-4.20;99.90
7016;DHT22;3548;48.402;9.990;2023-02-08T08:37:21;-4.20;99.90
7016;DHT22;3548;48.402;9.990;2023-02-08T08:39:46;-4.10;99.90
7016;DHT22;3548;48.402;9.990;2023-02-08T08:42:12;-3.90;99.90
7016;DHT22;3548;48.402;9.990;2023-02-08T08:44:37;-3.90;99.90
7016;DHT22;3548;48.402;9.990;2023-02-08T08:47:04;-4.00;99.90
7016;DHT22;3548;48.402;9.990;2023-02-08T08:49:29;-4.00;99.90
7016;DHT22;3548;48.402;9.990;2023-02-08T08:51:55;-4.00;99.90
7016;DHT22;3548;48.402;9.990;2023-02-08T08:54:22;-4.00;99.90
7016;DHT22;3548;48.402;9.990;2023-02-08T08:56:47;-3.90;99.90
7016;DHT22;3548;48.402;9.990;2023-02-08T08:59:13;-3.80;99.90
7016;DHT22;3548;48.402;9.990;2023-02-08T09:01:39;-3.90;99.90
7016;DHT22;3548;48.402;9.990;2023-02-08T09:04:07;-3.90;99.90
7016;DHT22;3548;48.402;9.990;2023-02-08T09:06:33;-3.90;99.90
7016;DHT22;3548;48.402;9.990;2023-02-08T09:08:59;-3.90;99.90
7016;DHT22;3548;48.402;9.990;2023-02-08T09:11:25;-3.90;99.90
7016;DHT22;3548;48.402;9.990;2023-02-08T09:13:51;-3.80;99.90
7016;DHT22;3548;48.402;9.990;2023-02-08T09:16:19;-3.70;99.90
7016;DHT22;3548;48.402;9.990;2023-02-08T09:18:46;-3.60;99.90
7016;DHT22;3548;48.402;9.990;2023-02-08T09:21:14;-3.70;99.90
7016;DHT22;3548;48.402;9.990;2023-02-08T09:23:40;-3.60;99.90
7016;DHT22;3548;48.402;9.990;2023-02-08T09:26:13;-3.60;99.90
7016;DHT22;3548;48.402;9.990;2023-02-08T09:28:39;-3.60;99.90
7016;DHT22;3548;48.402;9.990;2023-02-08T09:31:09;-3.60;99.90
7016;DHT22;3548;48.402;9.990;2023-02-08T09:33:35;-3.50;99.90
7016;DHT22;3548;48.402;9.990;2023-02-08T09:36:00;-3.40;99.90
7016;DHT22;3548;48.402;9.990;2023-02-08T09:38:26;-3.30;99.90
7016;DHT22;3548;48.402;9.990;2023-02-08T09:41:20;-3.00;99.90
7016;DHT22;3548;48.402;9.990;2023-02-08T09:46:42;-2.70;99.90
7016;DHT22;3548;48.402;9.990;2023-02-08T09:49:16;-2.80;99.90
7016;DHT22;3548;48.402;9.990;2023-02-08T09:51:45;-2.80;99.90
7016;DHT22;3548;48.402;9.990;2023-02-08T09:54:21;-2.80;99.90
7016;DHT22;3548;48.402;9.990;2023-02-08T09:56:48;-2.90;99.90
7016;DHT22;3548;48.402;9.990;2023-02-08T09:59:22;-2.70;99.90
7016;DHT22;3548;48.402;9.990;2023-02-08T10:07:09;-2.40;99.90
7016;DHT22;3548;48.402;9.990;2023-02-08T10:09:35;-2.40;99.90
7016;DHT22;3548;48.402;9.990;2023-02-08T10:23:58;-2.60;99.90
7016;DHT22;3548;48.402;9.990;2023-02-08T10:26:45;-2.40;99.90
7016;DHT22;3548;48.402;9.990;2023-02-08T10:32:13;-2.20;99.90
7016;DHT22;3548;48.402;9.990;2023-02-08T10:34:53;-2.00;99.90
7016;DHT22;3548;48.402;9.990;2023-02-08T10:37:28;-1.90;99.90
7016;DHT22;3548;48.402;9.990;2023-02-08T10:39:57;-1.90;99.90
7016;DHT22;3548;48.402;9.990;2023-02-08T10:42:26;-1.80;99.90
7016;DHT22;3548;48.402;9.990;2023-02-08T10:47:50;-1.80;99.90
7016;DHT22;3548;48.402;9.990;2023-02-08T10:50:42;-1.90;99.90
7016;DHT22;3548;48.402;9.990;2023-02-08T10:53:14;-1.90;99.90
7016;DHT22;3548;48.402;9.990;2023-02-08T10:55:47;-1.90;99.90
7016;DHT22;3548;48.402;9.990;2023-02-08T10:58:20;-2.00;99.90
7016;DHT22;3548;48.402;9.990;2023-02-08T11:00:47;-1.90;99.90
7016;DHT22;3548;48.402;9.990;2023-02-08T11:03:21;-1.80;99.90
7016;DHT22;3548;48.402;9.990;2023-02-08T11:05:48;-1.80;99.90
7016;DHT22;3548;48.402;9.990;2023-02-08T11:08:19;-1.70;99.90
7016;DHT22;3548;48.402;9.990;2023-02-08T11:13:24;-1.40;99.90
7016;DHT22;3548;48.402;9.990;2023-02-08T11:15:59;-1.40;99.90
7016;DHT22;3548;48.402;9.990;2023-02-08T11:18:31;-1.60;99.90
7016;DHT22;3548;48.402;9.990;2023-02-08T11:21:04;-1.50;99.90
7016;DHT22;3548;48.402;9.990;2023-02-08T11:23:36;-1.40;99.90
7016;DHT22;3548;48.402;9.990;2023-02-08T11:31:29;-1.30;99.90
7016;DHT22;3548;48.402;9.990;2023-02-08T11:34:09;-1.40;99.90
7016;DHT22;3548;48.402;9.990;2023-02-08T11:36:41;-1.40;99.90
7016;DHT22;3548;48.402;9.990;2023-02-08T11:39:37;-1.40;99.90
7016;DHT22;3548;48.402;9.990;2023-02-08T11:42:03;-1.30;99.90
7016;DHT22;3548;48.402;9.990;2023-02-08T11:44:32;-1.20;99.90
7016;DHT22;3548;48.402;9.990;2023-02-08T11:47:03;-1.20;99.90
7016;DHT22;3548;48.402;9.990;2023-02-08T11:49:41;-1.20;99.90
7016;DHT22;3548;48.402;9.990;2023-02-08T11:52:37;-1.10;99.90
7016;DHT22;3548;48.402;9.990;2023-02-08T11:58:14;-0.80;99.90
7016;DHT22;3548;48.402;9.990;2023-02-08T12:03:35;-0.70;99.90
7016;DHT22;3548;48.402;9.990;2023-02-08T12:17:15;-0.80;99.90
7016;DHT22;3548;48.402;9.990;2023-02-08T12:23:20;-0.80;99.90
7016;DHT22;3548;48.402;9.990;2023-02-08T12:25:56;-0.80;99.90
7016;DHT22;3548;48.402;9.990;2023-02-08T12:35:12;-0.50;99.90
7016;DHT22;3548;48.402;9.990;2023-02-08T12:41:04;-0.50;99.90
7016;DHT22;3548;48.402;9.990;2023-02-08T12:49:03;-0.30;99.90
7016;DHT22;3548;48.402;9.990;2023-02-08T12:51:37;-0.30;99.90
7016;DHT22;3548;48.402;9.990;2023-02-08T12:54:09;-0.30;99.90
7016;DHT22;3548;48.402;9.990;2023-02-08T12:56:40;-0.30;99.90
7016;DHT22;3548;48.402;9.990;2023-02-08T12:59:16;-0.30;99.90
7016;DHT22;3548;48.402;9.990;2023-02-08T13:01:45;-0.30;99.90
7016;DHT22;3548;48.402;9.990;2023-02-08T13:04:38;-0.30;99.90
7016;DHT22;3548;48.402;9.990;2023-02-08T13:07:17;-0.30;99.90
7016;DHT22;3548;48.402;9.990;2023-02-08T13:09:56;-0.20;99.90
7016;DHT22;3548;48.402;9.990;2023-02-08T13:12:31;0.00;99.90
7016;DHT22;3548;48.402;9.990;2023-02-08T13:15:26;0.00;99.90
7016;DHT22;3548;48.402;9.990;2023-02-08T13:18:03;-0.10;99.90
7016;DHT22;3548;48.402;9.990;2023-02-08T13:20:40;-0.10;99.90
7016;DHT22;3548;48.402;9.990;2023-02-08T13:23:35;0.00;99.90
7016;DHT22;3548;48.402;9.990;2023-02-08T13:26:29;0.10;99.90
7016;DHT22;3548;48.402;9.990;2023-02-08T13:28:58;-0.10;99.90
7016;DHT22;3548;48.402;9.990;2023-02-08T13:31:33;-0.20;99.90
7016;DHT22;3548;48.402;9.990;2023-02-08T13:34:11;-0.20;99.90
7016;DHT22;3548;48.402;9.990;2023-02-08T13:36:40;-0.20;99.90
7016;DHT22;3548;48.402;9.990;2023-02-08T13:39:21;-0.10;99.90
7016;DHT22;3548;48.402;9.990;2023-02-08T13:41:51;-0.10;99.90
7016;DHT22;3548;48.402;9.990;2023-02-08T13:44:20;-0.20;99.90
7016;DHT22;3548;48.402;9.990;2023-02-08T13:46:49;-0.20;99.90
7016;DHT22;3548;48.402;9.990;2023-02-08T13:52:07;-0.20;99.90
7016;DHT22;3548;48.402;9.990;2023-02-08T13:54:33;-0.30;99.90
7016;DHT22;3548;48.402;9.990;2023-02-08T13:56:59;-0.30;99.90
7016;DHT22;3548;48.402;9.990;2023-02-08T13:59:37;-0.20;99.90
7016;DHT22;3548;48.402;9.990;2023-02-08T14:04:45;-0.20;99.90
7016;DHT22;3548;48.402;9.990;2023-02-08T14:10:04;-0.30;99.90
7016;DHT22;3548;48.402;9.990;2023-02-08T14:12:47;-0.10;99.90
7016;DHT22;3548;48.402;9.990;2023-02-08T14:17:42;-0.10;99.90
7016;DHT22;3548;48.402;9.990;2023-02-08T14:20:23;-0.10;99.90
7016;DHT22;3548;48.402;9.990;2023-02-08T14:22:53;0.00;99.90
7016;DHT22;3548;48.402;9.990;2023-02-08T14:25:43;0.10;99.90
7016;DHT22;3548;48.402;9.990;2023-02-08T14:28:33;0.10;99.90
7016;DHT22;3548;48.402;9.990;2023-02-08T14:31:03;0.10;99.90
7016;DHT22;3548;48.402;9.990;2023-02-08T14:33:35;0.10;99.90
7016;DHT22;3548;48.402;9.990;2023-02-08T14:36:04;0.00;99.90
7016;DHT22;3548;48.402;9.990;2023-02-08T14:38:48;0.00;99.90
7016;DHT22;3548;48.402;9.990;2023-02-08T14:50:18;0.20;99.90
7016;DHT22;3548;48.402;9.990;2023-02-08T14:52:56;0.20;99.90
7016;DHT22;3548;48.402;9.990;2023-02-08T14:55:26;0.10;99.90
7016;DHT22;3548;48.402;9.990;2023-02-08T14:57:55;0.10;99.90
7016;DHT22;3548;48.402;9.990;2023-02-08T15:00:36;0.20;99.90
7016;DHT22;3548;48.402;9.990;2023-02-08T15:03:03;0.20;99.90
7016;DHT22;3548;48.402;9.990;2023-02-08T15:05:35;0.20;99.90
7016;DHT22;3548;48.402;9.990;2023-02-08T15:08:03;0.20;99.90
7016;DHT22;3548;48.402;9.990;2023-02-08T15:10:31;0.10;99.90
7016;DHT22;3548;48.402;9.990;2023-02-08T15:13:00;0.00;99.90
7016;DHT22;3548;48.402;9.990;2023-02-08T15:15:37;0.00;99.90
7016;DHT22;3548;48.402;9.990;2023-02-08T15:18:05;0.00;99.90
7016;DHT22;3548;48.402;9.990;2023-02-08T15:20:33;0.00;99.90
7016;DHT22;3548;48.402;9.990;2023-02-08T15:23:20;0.00;99.90
7016;DHT22;3548;48.402;9.990;2023-02-08T15:26:03;0.10;99.90
7016;DHT22;3548;48.402;9.990;2023-02-08T15:28:32;0.10;99.90
7016;DHT22;3548;48.402;9.990;2023-02-08T15:31:01;0.00;99.90
7016;DHT22;3548;48.402;9.990;2023-02-08T15:33:28;-0.10;99.90
7016;DHT22;3548;48.402;9.990;2023-02-08T15:36:02;-0.20;99.90
7016;DHT22;3548;48.402;9.990;2023-02-08T15:38:29;-0.30;99.90
7016;DHT22;3548;48.402;9.990;2023-02-08T15:43:25;-0.40;99.90
7016;DHT22;3548;48.402;9.990;2023-02-08T15:45:58;-0.40;99.90
7016;DHT22;3548;48.402;9.990;2023-02-08T15:48:25;-0.40;99.90
7016;DHT22;3548;48.402;9.990;2023-02-08T15:50:52;-0.50;99.90
7016;DHT22;3548;48.402;9.990;2023-02-08T15:53:19;-0.50;99.90
7016;DHT22;3548;48.402;9.990;2023-02-08T15:55:50;-0.60;99.90
7016;DHT22;3548;48.402;9.990;2023-02-08T15:58:30;-0.60;99.90
7016;DHT22;3548;48.402;9.990;2023-02-08T16:00:58;-0.60;99.90
7016;DHT22;3548;48.402;9.990;2023-02-08T16:03:26;-0.70;99.90
7016;DHT22;3548;48.402;9.990;2023-02-08T16:05:56;-0.70;99.90
7016;DHT22;3548;48.402;9.990;2023-02-08T16:08:33;-0.70;99.90
7016;DHT22;3548;48.402;9.990;2023-02-08T16:11:12;-0.80;99.90
7016;DHT22;3548;48.402;9.990;2023-02-08T16:13:40;-0.80;99.90
7016;DHT22;3548;48.402;9.990;2023-02-08T16:16:25;-0.90;99.90
7016;DHT22;3548;48.402;9.990;2023-02-08T16:19:18;-0.90;99.90
7016;DHT22;3548;48.402;9.990;2023-02-08T16:21:44;-0.90;99.90
7016;DHT22;3548;48.402;9.990;2023-02-08T16:26:44;-1.10;99.90
7016;DHT22;3548;48.402;9.990;2023-02-08T16:29:27;-1.10;99.90
7016;DHT22;3548;48.402;9.990;2023-02-08T16:32:03;-1.20;99.90
7016;DHT22;3548;48.402;9.990;2023-02-08T16:34:33;-1.20;99.90
7016;DHT22;3548;48.402;9.990;2023-02-08T16:37:00;-1.30;99.90
7016;DHT22;3548;48.402;9.990;2023-02-08T16:39:55;-1.30;99.90
7016;DHT22;3548;48.402;9.990;2023-02-08T16:42:24;-1.30;99.90
7016;DHT22;3548;48.402;9.990;2023-02-08T16:47:41;-1.40;99.90
7016;DHT22;3548;48.402;9.990;2023-02-08T16:50:09;-1.40;99.90
7016;DHT22;3548;48.402;9.990;2023-02-08T16:52:35;-1.40;99.90
7016;DHT22;3548;48.402;9.990;2023-02-08T16:55:01;-1.40;99.90
7016;DHT22;3548;48.402;9.990;2023-02-08T16:57:45;-1.40;99.90
7016;DHT22;3548;48.402;9.990;2023-02-08T17:00:21;-1.40;99.90
7016;DHT22;3548;48.402;9.990;2023-02-08T17:02:48;-1.40;99.90
7016;DHT22;3548;48.402;9.990;2023-02-08T17:05:14;-1.50;99.90
7016;DHT22;3548;48.402;9.990;2023-02-08T17:07:40;-1.50;99.90
7016;DHT22;3548;48.402;9.990;2023-02-08T17:10:07;-1.50;99.90
7016;DHT22;3548;48.402;9.990;2023-02-08T17:12:38;-1.50;99.90
7016;DHT22;3548;48.402;9.990;2023-02-08T17:15:04;-1.60;99.90
7016;DHT22;3548;48.402;9.990;2023-02-08T17:17:30;-1.60;99.90
7016;DHT22;3548;48.402;9.990;2023-02-08T17:19:55;-1.60;99.90
7016;DHT22;3548;48.402;9.990;2023-02-08T17:22:21;-1.70;99.90
7016;DHT22;3548;48.402;9.990;2023-02-08T17:24:47;-1.70;99.90
7016;DHT22;3548;48.402;9.990;2023-02-08T17:27:12;-1.70;99.90
7016;DHT22;3548;48.402;9.990;2023-02-08T17:29:38;-1.70;99.90
7016;DHT22;3548;48.402;9.990;2023-02-08T17:32:04;-1.70;99.90
7016;DHT22;3548;48.402;9.990;2023-02-08T17:34:29;-1.70;99.90
7016;DHT22;3548;48.402;9.990;2023-02-08T17:36:55;-1.70;99.90
7016;DHT22;3548;48.402;9.990;2023-02-08T17:39:20;-1.70;99.90
7016;DHT22;3548;48.402;9.990;2023-02-08T17:41:46;-1.80;99.90
7016;DHT22;3548;48.402;9.990;2023-02-08T17:44:12;-1.80;99.90
7016;DHT22;3548;48.402;9.990;2023-02-08T17:46:39;-1.90;99.90
7016;DHT22;3548;48.402;9.990;2023-02-08T17:49:05;-1.90;99.90
7016;DHT22;3548;48.402;9.990;2023-02-08T17:51:31;-1.90;99.90
7016;DHT22;3548;48.402;9.990;2023-02-08T17:53:57;-2.00;99.90
7016;DHT22;3548;48.402;9.990;2023-02-08T17:56:24;-2.00;99.90
7016;DHT22;3548;48.402;9.990;2023-02-08T17:58:51;-2.00;99.90
7016;DHT22;3548;48.402;9.990;2023-02-08T18:01:25;-2.00;99.90
7016;DHT22;3548;48.402;9.990;2023-02-08T18:03:51;-2.00;99.90
7016;DHT22;3548;48.402;9.990;2023-02-08T18:06:18;-2.10;99.90
7016;DHT22;3548;48.402;9.990;2023-02-08T18:08:43;-2.00;99.90
7016;DHT22;3548;48.402;9.990;2023-02-08T18:11:12;-2.00;99.90
7016;DHT22;3548;48.402;9.990;2023-02-08T18:13:40;-2.00;99.90
7016;DHT22;3548;48.402;9.990;2023-02-08T18:16:20;-2.00;99.90
7016;DHT22;3548;48.402;9.990;2023-02-08T18:18:46;-2.00;99.90
7016;DHT22;3548;48.402;9.990;2023-02-08T18:21:20;-1.90;99.90
7016;DHT22;3548;48.402;9.990;2023-02-08T18:23:46;-2.00;99.90
7016;DHT22;3548;48.402;9.990;2023-02-08T18:26:16;-2.00;99.90